Time;durP1;ratioP1;P1;durP2;ratioP2;P2;SDS_P1;SDS_P2;PMS_P1;PMS_P2;Temp;Humidity;BMP_temperature;BMP_pressure;BME280_temperature;BME280_humidity;BME280_pressure;Samples;Min_cycle;Max_cycle;Signal;HPM_P1;HPM_P2
2022/12/13 00:01:49;;;;;;;11.77;8.30;;;5.30;72.40;;;;;;5096018;28;20382;-48
2022/12/13 00:04:16;;;;;;;13.45;8.63;;;5.30;72.40;;;;;;5103753;28;20032;-49
2022/12/13 00:06:41;;;;;;;12.45;8.43;;;5.30;72.40;;;;;;5106097;28;20052;-66
2022/12/13 00:09:08;;;;;;;13.65;9.13;;;5.30;72.40;;;;;;5113679;28;20030;-66
2022/12/13 00:11:33;;;;;;;12.07;8.65;;;5.30;72.40;;;;;;5108293;28;20028;-47
2022/12/13 00:13:59;;;;;;;11.82;8.35;;;5.30;72.50;;;;;;5114084;28;20081;-49
2022/12/13 00:16:26;;;;;;;12.15;8.63;;;5.30;72.60;;;;;;5109579;28;20032;-64
2022/12/13 00:18:55;;;;;;;12.82;8.60;;;5.20;72.60;;;;;;5128800;28;20031;-63
2022/12/13 00:21:23;;;;;;;11.23;8.82;;;5.20;72.50;;;;;;5114886;28;20073;-50
2022/12/13 00:23:49;;;;;;;12.60;8.50;;;5.20;72.50;;;;;;5101007;28;20048;-50
2022/12/13 00:26:18;;;;;;;12.60;8.63;;;5.20;72.30;;;;;;5101885;28;20035;-67
2022/12/13 00:28:45;;;;;;;11.43;8.45;;;5.20;72.30;;;;;;5112221;28;20095;-63
2022/12/13 00:31:10;;;;;;;13.35;9.10;;;5.20;72.30;;;;;;5109384;28;20039;-50
2022/12/13 00:33:38;;;;;;;11.30;8.85;;;5.20;72.30;;;;;;5100037;28;20036;-46
2022/12/13 00:36:06;;;;;;;11.80;8.40;;;5.20;72.30;;;;;;5109068;28;20035;-49
2022/12/13 00:38:33;;;;;;;11.60;8.38;;;5.20;72.30;;;;;;5106093;28;20048;-47
2022/12/13 00:40:59;;;;;;;12.05;8.18;;;5.20;72.30;;;;;;5101291;28;20031;-47
2022/12/13 00:43:24;;;;;;;11.73;8.30;;;5.20;72.30;;;;;;5108292;28;20532;-49
2022/12/13 00:45:50;;;;;;;12.27;8.93;;;5.10;72.30;;;;;;5100436;28;20081;-46
2022/12/13 00:48:15;;;;;;;11.55;7.90;;;5.20;72.40;;;;;;5093944;28;20368;-48
2022/12/13 00:50:41;;;;;;;12.68;8.60;;;5.10;72.30;;;;;;5098994;28;20067;-48
2022/12/13 00:53:07;;;;;;;11.00;7.82;;;5.10;72.40;;;;;;5110416;28;20102;-47
2022/12/13 00:55:33;;;;;;;11.63;7.80;;;5.10;72.40;;;;;;5113218;28;20530;-46
2022/12/13 00:57:58;;;;;;;11.95;8.35;;;5.10;72.30;;;;;;5105955;28;20074;-46
2022/12/13 01:00:24;;;;;;;14.32;8.90;;;5.10;72.30;;;;;;5100853;28;20028;-46
2022/12/13 01:16:27;;;;;;;14.27;10.18;;;5.00;71.50;;;;;;5090866;27;20862;-47
2022/12/13 01:18:53;;;;;;;12.73;9.95;;;5.50;70.20;;;;;;5082005;28;20036;-47
2022/12/13 01:21:21;;;;;;;11.85;9.40;;;5.40;70.40;;;;;;5069543;28;20317;-47
2022/12/13 01:23:47;;;;;;;12.50;9.75;;;5.30;70.70;;;;;;5071314;28;20028;-48
2022/12/13 01:26:20;;;;;;;13.88;11.20;;;5.30;71.20;;;;;;5068264;28;20040;-48
2022/12/13 01:28:46;;;;;;;13.15;10.77;;;5.20;71.90;;;;;;5076478;28;20029;-47
2022/12/13 01:31:16;;;;;;;13.38;10.27;;;5.20;71.40;;;;;;5074605;28;20041;-47
2022/12/13 01:33:42;;;;;;;14.52;11.40;;;5.20;71.60;;;;;;5068401;28;20372;-46
2022/12/13 01:36:12;;;;;;;14.10;10.93;;;5.20;71.50;;;;;;5065315;28;20383;-48
2022/12/13 01:38:37;;;;;;;12.55;10.00;;;5.10;71.60;;;;;;5069180;28;20033;-47
2022/12/13 01:41:04;;;;;;;11.13;8.75;;;5.10;71.60;;;;;;5068342;28;20033;-46
2022/12/13 01:43:36;;;;;;;10.70;8.82;;;5.10;71.70;;;;;;5067382;28;20067;-49
2022/12/13 01:46:03;;;;;;;12.40;9.32;;;5.10;71.90;;;;;;5080427;28;20032;-47
2022/12/13 01:48:35;;;;;;;13.35;9.30;;;5.10;72.10;;;;;;5073504;28;20036;-48
2022/12/13 01:51:04;;;;;;;13.23;9.50;;;5.10;72.10;;;;;;5081316;28;20463;-51
2022/12/13 01:53:35;;;;;;;11.63;8.80;;;5.10;72.30;;;;;;5069651;28;20036;-49
2022/12/13 01:56:06;;;;;;;12.85;8.80;;;5.10;72.30;;;;;;5073524;28;20047;-51
2022/12/13 01:58:34;;;;;;;10.98;7.93;;;5.10;72.50;;;;;;5088043;28;20395;-48
2022/12/13 02:01:01;;;;;;;11.20;8.15;;;5.10;72.70;;;;;;5079372;28;20039;-65
2022/12/13 02:03:27;;;;;;;12.43;8.00;;;5.10;72.70;;;;;;5080730;28;20032;-70
2022/12/13 02:06:18;;;;;;;11.90;8.30;;;5.10;72.60;;;;;;5082005;28;20387;-56
2022/12/13 02:08:45;;;;;;;12.30;8.02;;;5.10;72.50;;;;;;5071932;28;20086;-57
2022/12/13 02:11:13;;;;;;;9.68;7.47;;;5.10;72.50;;;;;;5076392;28;20464;-57
2022/12/13 02:13:39;;;;;;;12.02;8.20;;;5.10;72.60;;;;;;5068004;28;20487;-57
2022/12/13 02:16:14;;;;;;;11.75;8.80;;;5.10;72.50;;;;;;5068317;28;20484;-54
2022/12/13 02:19:10;;;;;;;11.23;8.25;;;5.10;72.40;;;;;;5054306;28;20087;-55
2022/12/13 02:22:13;;;;;;;11.80;9.45;;;5.10;72.40;;;;;;5061942;28;20036;-54
2022/12/13 02:25:05;;;;;;;11.40;8.07;;;5.10;72.30;;;;;;5055218;28;20090;-56
2022/12/13 02:27:44;;;;;;;12.80;8.05;;;5.10;72.30;;;;;;5043220;28;20037;-68
2022/12/13 02:30:32;;;;;;;11.57;7.93;;;5.10;72.30;;;;;;5071915;28;20478;-65
2022/12/13 02:33:21;;;;;;;12.38;8.27;;;5.10;72.60;;;;;;5055098;28;20434;-56
2022/12/13 02:36:13;;;;;;;10.30;7.68;;;5.10;72.60;;;;;;5063345;28;20039;-70
2022/12/13 02:38:51;;;;;;;12.15;8.48;;;5.10;72.60;;;;;;5061564;28;20021;-68
2022/12/13 02:41:30;;;;;;;12.57;9.48;;;5.10;72.80;;;;;;5067382;28;20028;-57
2022/12/13 02:44:03;;;;;;;12.52;8.75;;;5.10;72.80;;;;;;5066350;28;20387;-57
2022/12/13 02:46:34;;;;;;;13.40;9.20;;;5.10;73.00;;;;;;5062498;28;20062;-48
2022/12/13 02:49:00;;;;;;;13.23;8.90;;;5.00;73.10;;;;;;5056804;28;20029;-47
2022/12/13 02:51:28;;;;;;;12.15;8.85;;;5.00;73.30;;;;;;5059617;28;20044;-70
2022/12/13 02:53:54;;;;;;;13.20;8.90;;;5.00;73.50;;;;;;5068739;28;20112;-68
2022/12/13 02:56:21;;;;;;;11.20;8.07;;;4.90;73.50;;;;;;5082200;28;20090;-65
2022/12/13 02:58:50;;;;;;;9.90;7.65;;;4.90;73.80;;;;;;5070037;28;20096;-69
2022/12/13 03:01:53;;;;;;;11.63;7.93;;;5.00;74.00;;;;;;5054836;28;20029;-62
2022/12/13 03:08:17;;;;;;;10.38;7.32;;;5.00;74.10;;;;;;5053077;28;20070;-53
2022/12/13 03:10:50;;;;;;;11.43;8.27;;;5.00;73.90;;;;;;5055054;28;20031;-56
2022/12/13 03:13:48;;;;;;;9.70;7.88;;;5.00;73.80;;;;;;5053177;28;20427;-56
2022/12/13 03:16:25;;;;;;;10.82;8.43;;;5.10;73.70;;;;;;5052027;28;20041;-52
2022/12/13 03:18:58;;;;;;;12.93;7.22;;;5.10;73.50;;;;;;5053063;28;20037;-51
2022/12/13 03:21:24;;;;;;;11.88;8.63;;;5.20;73.40;;;;;;5059327;28;20021;-70
2022/12/13 03:23:50;;;;;;;9.65;7.63;;;5.20;73.30;;;;;;5066085;28;20114;-68
2022/12/13 03:26:20;;;;;;;11.55;7.97;;;5.20;73.10;;;;;;5060889;28;20033;-52
2022/12/13 03:28:47;;;;;;;11.07;8.10;;;5.20;73.00;;;;;;5054139;28;20061;-47
2022/12/13 03:31:13;;;;;;;11.90;8.50;;;5.30;73.00;;;;;;5053483;28;20112;-51
2022/12/13 03:33:39;;;;;;;9.32;7.22;;;5.30;72.80;;;;;;5053934;28;20112;-47
2022/12/13 03:36:06;;;;;;;11.85;8.10;;;5.30;72.80;;;;;;5068325;28;20032;-48
2022/12/13 03:38:31;;;;;;;10.35;7.13;;;5.30;72.70;;;;;;5063343;28;20115;-51
2022/12/13 03:41:02;;;;;;;10.20;7.00;;;5.30;72.70;;;;;;5051883;28;20174;-48
2022/12/13 03:43:28;;;;;;;9.93;7.72;;;5.30;72.60;;;;;;5051282;28;20071;-48
2022/12/13 03:45:55;;;;;;;11.77;7.90;;;5.30;72.70;;;;;;5057812;28;20127;-55
2022/12/13 03:48:22;;;;;;;11.20;7.55;;;5.30;72.70;;;;;;5052837;28;20045;-55
2022/12/13 03:50:48;;;;;;;7.88;5.93;;;5.30;72.60;;;;;;5052320;28;20021;-56
2022/12/13 03:53:14;;;;;;;10.57;6.97;;;5.30;72.60;;;;;;5053332;28;20029;-56
2022/12/13 03:55:40;;;;;;;11.43;7.40;;;5.40;72.80;;;;;;5053800;28;20120;-61
2022/12/13 03:58:06;;;;;;;10.18;7.85;;;5.40;72.70;;;;;;5053291;28;20159;-61
2022/12/13 04:00:31;;;;;;;11.85;8.00;;;5.40;72.70;;;;;;5053938;28;20033;-53
2022/12/13 04:02:57;;;;;;;11.60;8.98;;;5.40;72.60;;;;;;5054988;28;20103;-56
2022/12/13 04:05:23;;;;;;;15.43;11.23;;;5.40;72.70;;;;;;5052866;28;20492;-56
2022/12/13 04:07:48;;;;;;;16.67;11.23;;;5.40;72.50;;;;;;5054573;28;20032;-56
2022/12/13 04:10:15;;;;;;;16.65;12.38;;;5.30;72.10;;;;;;5057797;28;20033;-55
2022/12/13 04:15:24;;;;;;;19.08;14.93;;;5.20;72.00;;;;;;5051808;28;20133;-55
2022/12/13 04:17:50;;;;;;;17.90;15.68;;;5.10;71.80;;;;;;5057525;28;20477;-56
2022/12/13 04:20:16;;;;;;;17.13;13.43;;;5.00;71.70;;;;;;5062087;28;20116;-56
2022/12/13 04:22:41;;;;;;;14.27;12.40;;;4.90;71.90;;;;;;5065457;28;20379;-61
2022/12/13 04:25:07;;;;;;;16.90;12.07;;;4.80;72.20;;;;;;5056775;28;20040;-60
2022/12/13 04:27:33;;;;;;;15.43;11.60;;;4.80;73.30;;;;;;5055630;28;20468;-56
2022/12/13 04:29:58;;;;;;;15.40;10.82;;;4.80;72.90;;;;;;5055233;28;20523;-55
2022/12/13 04:32:24;;;;;;;14.73;10.65;;;4.80;73.20;;;;;;5060438;28;20078;-50
2022/12/13 04:34:50;;;;;;;16.60;12.00;;;4.80;73.30;;;;;;5054543;28;20380;-54
2022/12/13 04:37:15;;;;;;;17.33;12.52;;;4.80;73.30;;;;;;5057706;28;20044;-49
2022/12/13 04:39:41;;;;;;;17.80;11.05;;;4.90;73.40;;;;;;5055414;28;20041;-51
2022/12/13 04:42:06;;;;;;;12.80;9.30;;;4.90;73.50;;;;;;5062403;28;20029;-68
2022/12/13 04:44:32;;;;;;;12.77;9.73;;;4.90;73.70;;;;;;5065940;28;20029;-70
2022/12/13 04:46:58;;;;;;;16.45;10.90;;;4.90;73.80;;;;;;5062609;28;20064;-48
2022/12/13 04:49:24;;;;;;;15.13;10.48;;;4.80;73.90;;;;;;5052769;28;20041;-47
2022/12/13 04:51:49;;;;;;;13.40;9.55;;;4.80;73.90;;;;;;5052010;28;20035;-48
2022/12/13 04:54:15;;;;;;;12.90;9.05;;;4.80;74.00;;;;;;5053130;28;20487;-50
2022/12/13 04:56:40;;;;;;;15.10;10.55;;;4.80;74.20;;;;;;5048629;28;20024;-47
2022/12/13 04:59:06;;;;;;;15.23;9.70;;;4.90;74.40;;;;;;5047701;28;20037;-49
2022/12/13 05:01:33;;;;;;;15.05;9.82;;;4.80;74.10;;;;;;5052910;28;20078;-50
2022/12/13 05:04:00;;;;;;;14.32;9.18;;;4.80;74.30;;;;;;5049912;28;20376;-52
2022/12/13 05:06:26;;;;;;;14.13;8.52;;;4.80;74.40;;;;;;5052489;28;20061;-54
2022/12/13 05:08:51;;;;;;;15.70;9.80;;;4.90;74.60;;;;;;5049113;28;20061;-52
2022/12/13 05:11:17;;;;;;;17.23;10.88;;;4.90;74.50;;;;;;5054063;28;20116;-52
2022/12/13 05:13:43;;;;;;;14.85;9.90;;;5.00;74.30;;;;;;5049510;28;20033;-54
2022/12/13 05:16:09;;;;;;;13.90;8.95;;;5.00;74.10;;;;;;5048430;28;20091;-57
2022/12/13 05:18:36;;;;;;;14.40;10.25;;;5.00;74.10;;;;;;5049677;28;20047;-55
2022/12/13 05:21:03;;;;;;;15.38;9.50;;;5.10;73.90;;;;;;5050876;28;20037;-56
2022/12/13 05:23:30;;;;;;;17.98;9.93;;;5.10;73.90;;;;;;5046400;28;20116;-55
2022/12/13 05:25:56;;;;;;;18.38;10.85;;;5.20;73.90;;;;;;5046651;28;20148;-53
2022/12/13 05:28:24;;;;;;;15.00;9.45;;;5.20;73.60;;;;;;5050554;28;20029;-56
2022/12/13 05:30:50;;;;;;;13.18;8.68;;;5.20;73.50;;;;;;5059512;28;20043;-68
2022/12/13 05:33:16;;;;;;;13.98;8.60;;;5.20;73.50;;;;;;5054025;28;20037;-67
2022/12/13 05:35:42;;;;;;;13.15;8.88;;;5.20;73.50;;;;;;5057920;28;20521;-63
2022/12/13 05:38:07;;;;;;;12.65;8.50;;;5.30;73.60;;;;;;5058207;28;20058;-61
2022/12/13 05:40:33;;;;;;;12.77;8.63;;;5.30;73.50;;;;;;5052745;28;20108;-61
2022/12/13 05:42:58;;;;;;;16.77;10.88;;;5.30;73.60;;;;;;5054147;28;20032;-62
2022/12/13 05:45:25;;;;;;;15.30;9.40;;;5.30;73.50;;;;;;5047529;28;20029;-55
2022/12/13 05:47:50;;;;;;;13.50;8.70;;;5.30;73.60;;;;;;5050953;28;20135;-55
2022/12/13 05:50:16;;;;;;;12.45;8.10;;;5.20;73.80;;;;;;5048901;28;20543;-56
2022/12/13 05:52:42;;;;;;;11.70;7.68;;;5.20;74.00;;;;;;5055935;28;20478;-56
2022/12/13 05:55:09;;;;;;;13.13;8.85;;;5.20;74.10;;;;;;5054044;28;20068;-56
2022/12/13 05:57:35;;;;;;;12.63;9.40;;;5.20;74.90;;;;;;5057886;28;20535;-67
2022/12/13 06:00:01;;;;;;;12.93;7.90;;;5.30;74.30;;;;;;5059048;28;20044;-64
2022/12/13 06:02:27;;;;;;;13.35;9.32;;;5.30;74.10;;;;;;5058001;28;20033;-66
2022/12/13 06:04:53;;;;;;;14.00;9.20;;;5.30;74.10;;;;;;5058103;28;20036;-60
2022/12/13 06:07:19;;;;;;;16.33;10.80;;;5.30;73.90;;;;;;5065143;28;20029;-63
2022/12/13 06:09:44;;;;;;;16.77;10.23;;;5.40;74.00;;;;;;5062148;28;20033;-66
2022/12/13 06:12:10;;;;;;;14.02;9.77;;;5.30;74.00;;;;;;5063951;28;20028;-62
2022/12/13 06:14:36;;;;;;;13.75;9.50;;;5.30;74.20;;;;;;5049733;28;20072;-68
2022/12/13 06:17:02;;;;;;;15.52;10.25;;;5.30;74.30;;;;;;5066735;28;20028;-59
2022/12/13 06:19:28;;;;;;;14.27;10.55;;;5.20;74.50;;;;;;5064238;28;20025;-67
2022/12/13 06:21:54;;;;;;;17.38;11.25;;;5.10;74.70;;;;;;5061398;28;20048;-64
2022/12/13 06:24:22;;;;;;;15.00;10.98;;;5.10;74.90;;;;;;5070944;28;20021;-69
2022/12/13 06:26:49;;;;;;;16.17;11.18;;;5.00;75.10;;;;;;5059455;28;20040;-62
2022/12/13 06:29:16;;;;;;;15.10;10.77;;;5.00;75.40;;;;;;5064434;28;20468;-68
2022/12/13 06:31:42;;;;;;;16.20;11.18;;;5.00;75.40;;;;;;5062475;28;20443;-68
2022/12/13 06:34:08;;;;;;;17.08;11.77;;;4.90;75.60;;;;;;5066106;28;20075;-70
2022/12/13 06:36:33;;;;;;;17.30;12.15;;;4.90;75.80;;;;;;5063803;28;20025;-64
2022/12/13 06:39:05;;;;;;;18.45;13.02;;;4.90;75.90;;;;;;5059662;28;20044;-68
2022/12/13 06:41:32;;;;;;;17.77;12.50;;;4.90;75.90;;;;;;5060492;28;20033;-68
2022/12/13 06:43:57;;;;;;;16.95;13.02;;;4.80;75.90;;;;;;5064814;28;20370;-66
2022/12/13 06:46:24;;;;;;;15.63;11.50;;;4.80;76.10;;;;;;5059783;28;20029;-63
2022/12/13 06:48:50;;;;;;;15.95;11.00;;;4.80;76.10;;;;;;5058627;28;20033;-67
2022/12/13 06:51:16;;;;;;;15.75;11.00;;;4.80;76.40;;;;;;5053355;28;20554;-66
2022/12/13 06:53:42;;;;;;;13.70;10.57;;;4.80;76.50;;;;;;5057415;28;20043;-67
2022/12/13 06:56:13;;;;;;;13.50;10.00;;;4.90;76.50;;;;;;5061971;28;20078;-59
2022/12/13 06:58:40;;;;;;;13.85;10.18;;;4.90;76.60;;;;;;5055303;28;20025;-67
2022/12/13 07:01:09;;;;;;;13.75;9.43;;;5.00;76.50;;;;;;5061461;28;20040;-69
2022/12/13 07:03:39;;;;;;;12.88;8.70;;;5.10;76.30;;;;;;5067132;28;20016;-66
2022/12/13 07:06:16;;;;;;;12.95;10.10;;;5.10;76.00;;;;;;5063415;28;20040;-65
2022/12/13 07:08:43;;;;;;;11.95;8.90;;;5.20;75.90;;;;;;5065461;28;20029;-63
2022/12/13 07:11:17;;;;;;;12.98;8.93;;;5.20;75.70;;;;;;5053090;28;20216;-56
2022/12/13 07:13:44;;;;;;;13.77;9.40;;;5.30;75.50;;;;;;5055829;28;20032;-67
2022/12/13 07:16:10;;;;;;;14.23;10.52;;;5.30;75.50;;;;;;5049337;28;20071;-55
2022/12/13 07:18:37;;;;;;;13.43;9.95;;;5.30;75.40;;;;;;5052262;28;20107;-55
2022/12/13 07:21:12;;;;;;;13.65;9.90;;;5.40;75.40;;;;;;5046637;28;21399;-53
2022/12/13 07:23:39;;;;;;;17.80;11.95;;;5.40;75.10;;;;;;5047225;28;20041;-54
2022/12/13 07:26:06;;;;;;;18.23;11.25;;;5.40;75.10;;;;;;5046147;28;20171;-51
2022/12/13 07:28:33;;;;;;;15.70;11.85;;;5.40;75.20;;;;;;5046790;28;20110;-55
2022/12/13 07:31:01;;;;;;;20.58;14.10;;;5.30;75.10;;;;;;5044642;28;20028;-49
2022/12/13 07:33:31;;;;;;;20.55;13.90;;;5.30;75.00;;;;;;5045708;28;20443;-50
2022/12/13 07:36:06;;;;;;;19.98;13.93;;;5.20;75.00;;;;;;5047208;28;20348;-54
2022/12/13 07:41:07;;;;;;;18.70;13.40;;;5.10;74.70;;;;;;5080493;27;20451;-62
2022/12/13 07:43:33;;;;;;;17.02;12.82;;;5.10;75.10;;;;;;5089728;28;20040;-61
2022/12/13 07:46:01;;;;;;;17.05;12.10;;;5.00;75.30;;;;;;5078049;28;20036;-52
2022/12/13 07:48:27;;;;;;;16.10;11.38;;;5.00;75.50;;;;;;5064830;28;20033;-49
2022/12/13 07:50:54;;;;;;;18.08;11.98;;;5.00;75.70;;;;;;5073953;28;20044;-48
2022/12/13 07:53:23;;;;;;;16.42;11.48;;;5.00;75.70;;;;;;5073884;28;20033;-48
2022/12/13 07:55:49;;;;;;;15.68;11.27;;;5.00;75.70;;;;;;5071133;28;20047;-52
2022/12/13 07:58:15;;;;;;;13.35;10.10;;;4.90;75.40;;;;;;5063382;28;20656;-51
2022/12/13 08:00:43;;;;;;;12.10;9.07;;;4.90;75.60;;;;;;5061603;28;20043;-53
2022/12/13 08:03:09;;;;;;;11.25;8.55;;;4.90;75.70;;;;;;5059474;28;20189;-54
2022/12/13 08:05:36;;;;;;;11.93;8.70;;;4.80;75.60;;;;;;5062479;28;20029;-54
2022/12/13 08:08:04;;;;;;;9.80;7.30;;;4.80;75.60;;;;;;5063406;28;20036;-55
2022/12/13 08:10:30;;;;;;;9.98;7.55;;;4.80;75.70;;;;;;5056924;28;20041;-56
2022/12/13 08:12:57;;;;;;;9.65;7.40;;;4.80;75.60;;;;;;5062793;28;20548;-50
2022/12/13 08:15:24;;;;;;;10.52;7.68;;;4.80;75.70;;;;;;5062232;28;20040;-48
2022/12/13 08:17:50;;;;;;;13.90;8.43;;;4.70;75.70;;;;;;5058647;28;20397;-53
2022/12/13 08:20:16;;;;;;;10.77;7.65;;;4.80;76.00;;;;;;5056051;28;20081;-50
2022/12/13 08:22:42;;;;;;;12.38;8.45;;;4.80;76.20;;;;;;5060670;28;20086;-49
2022/12/13 08:25:09;;;;;;;12.65;8.95;;;4.80;76.40;;;;;;5054282;28;20590;-55
2022/12/13 08:27:35;;;;;;;12.02;7.97;;;4.80;76.90;;;;;;5064691;28;20081;-53
2022/12/13 08:30:00;;;;;;;10.82;7.75;;;4.90;76.50;;;;;;5064772;28;20032;-52
2022/12/13 08:32:26;;;;;;;9.98;7.57;;;4.90;76.50;;;;;;5054638;28;20037;-53
2022/12/13 08:34:52;;;;;;;9.38;7.07;;;5.00;76.40;;;;;;5059331;28;20028;-49
2022/12/13 08:37:18;;;;;;;10.43;6.88;;;5.00;76.20;;;;;;5065279;28;20035;-53
2022/12/13 08:39:44;;;;;;;8.80;6.63;;;5.00;76.20;;;;;;5067502;28;20093;-53
2022/12/13 08:42:15;;;;;;;7.82;6.18;;;5.10;76.20;;;;;;5052756;28;20475;-52
2022/12/13 08:44:41;;;;;;;8.90;6.43;;;5.10;76.10;;;;;;5056725;28;20035;-51
2022/12/13 08:47:08;;;;;;;8.95;6.13;;;5.20;76.00;;;;;;5050553;28;20048;-52
2022/12/13 08:49:34;;;;;;;9.50;6.30;;;5.20;75.90;;;;;;5063402;28;20028;-51
2022/12/13 08:51:59;;;;;;;9.05;6.05;;;5.20;75.90;;;;;;5050933;28;20033;-50
2022/12/13 08:54:25;;;;;;;9.93;7.80;;;5.20;75.80;;;;;;5046262;28;20396;-52
2022/12/13 08:56:51;;;;;;;8.63;6.25;;;5.30;75.90;;;;;;5039514;28;20415;-53
2022/12/13 08:59:17;;;;;;;9.20;6.65;;;5.30;75.90;;;;;;5028813;28;20064;-54
2022/12/13 09:01:44;;;;;;;9.85;6.38;;;5.30;75.90;;;;;;5045392;28;20052;-53
2022/12/13 09:04:12;;;;;;;8.13;6.40;;;5.30;76.00;;;;;;5039170;28;20047;-54
2022/12/13 09:06:41;;;;;;;9.70;6.95;;;5.30;76.00;;;;;;5027675;28;20037;-54
2022/12/13 09:09:07;;;;;;;10.73;6.70;;;5.40;76.10;;;;;;5040115;28;20041;-49
2022/12/13 09:11:33;;;;;;;10.32;7.32;;;5.40;76.10;;;;;;5044366;28;20149;-51
2022/12/13 09:13:59;;;;;;;11.68;8.00;;;5.40;76.50;;;;;;5036365;28;20033;-55
2022/12/13 09:16:25;;;;;;;10.32;7.35;;;5.40;75.90;;;;;;5026598;28;20130;-54
2022/12/13 09:18:52;;;;;;;10.85;8.23;;;5.50;75.90;;;;;;5041967;28;20139;-55
2022/12/13 09:21:18;;;;;;;10.68;7.78;;;5.50;75.80;;;;;;5051095;28;20060;-56
2022/12/13 09:23:44;;;;;;;10.55;7.32;;;5.50;75.70;;;;;;5033607;28;20047;-53
2022/12/13 09:26:12;;;;;;;9.95;7.47;;;5.60;75.80;;;;;;5031777;28;20037;-55
2022/12/13 09:28:38;;;;;;;10.52;6.65;;;5.60;75.70;;;;;;5034567;28;20060;-50
2022/12/13 09:31:12;;;;;;;9.35;6.50;;;5.60;75.50;;;;;;5042848;28;21906;-57
2022/12/13 09:33:38;;;;;;;11.13;7.28;;;5.60;75.30;;;;;;5030723;28;20906;-56
2022/12/13 09:36:07;;;;;;;11.75;7.00;;;5.60;75.30;;;;;;5019871;28;20033;-58
2022/12/13 09:38:34;;;;;;;10.80;6.97;;;5.60;75.20;;;;;;5032709;28;20905;-55
2022/12/13 09:41:23;;;;;;;12.07;7.53;;;5.60;75.20;;;;;;5037990;28;20052;-53
2022/12/13 09:43:55;;;;;;;11.98;7.50;;;5.70;75.10;;;;;;5032350;28;20554;-57
2022/12/13 09:46:31;;;;;;;12.45;7.45;;;5.70;75.00;;;;;;5029948;28;20036;-57
2022/12/13 09:48:59;;;;;;;11.55;8.15;;;5.60;75.00;;;;;;5040497;28;20037;-56
2022/12/13 09:51:25;;;;;;;10.52;7.57;;;5.60;74.70;;;;;;5044485;28;20663;-54
2022/12/13 09:53:52;;;;;;;13.85;7.93;;;5.60;74.60;;;;;;5043984;28;20036;-54
2022/12/13 09:56:20;;;;;;;10.30;7.05;;;5.60;74.60;;;;;;5037526;28;20367;-56
2022/12/13 09:58:58;;;;;;;9.52;6.85;;;5.50;74.80;;;;;;5044407;28;20040;-52
2022/12/13 10:01:24;;;;;;;9.52;6.38;;;5.50;75.10;;;;;;5034501;28;20545;-57
2022/12/13 10:03:52;;;;;;;7.45;5.80;;;5.40;75.30;;;;;;5035107;28;20036;-57
2022/12/13 10:06:27;;;;;;;7.07;5.13;;;5.30;75.30;;;;;;5038498;28;20048;-53
2022/12/13 10:08:56;;;;;;;9.38;5.97;;;5.30;75.60;;;;;;5041202;28;20024;-53
2022/12/13 10:11:22;;;;;;;9.00;6.28;;;5.20;75.90;;;;;;5031640;28;20534;-55
2022/12/13 10:14:28;;;;;;;8.10;5.93;;;5.20;75.80;;;;;;5020728;28;20032;-52
2022/12/13 10:16:58;;;;;;;8.98;6.38;;;5.10;75.80;;;;;;5001297;28;20048;-55
2022/12/13 10:19:37;;;;;;;7.68;5.57;;;5.10;75.90;;;;;;5030592;28;20051;-55
2022/12/13 10:22:07;;;;;;;8.98;5.80;;;5.00;76.00;;;;;;5032342;28;20040;-56
2022/12/13 10:24:59;;;;;;;9.65;6.68;;;5.00;76.20;;;;;;5027186;28;20040;-55
2022/12/13 10:27:48;;;;;;;9.25;6.07;;;4.90;76.30;;;;;;5035802;28;20151;-52
2022/12/13 10:30:25;;;;;;;7.97;5.28;;;4.90;76.10;;;;;;5032015;28;20041;-55
2022/12/13 10:32:57;;;;;;;7.55;5.45;;;4.90;76.60;;;;;;5030046;28;20029;-53
2022/12/13 10:35:33;;;;;;;8.77;5.40;;;4.90;76.80;;;;;;5031642;28;21166;-54
2022/12/13 10:38:01;;;;;;;8.23;5.80;;;5.00;76.70;;;;;;5033270;28;20048;-53
2022/12/13 10:40:36;;;;;;;8.15;5.43;;;5.00;76.60;;;;;;5027791;28;20044;-55
2022/12/13 10:43:16;;;;;;;6.93;5.00;;;5.10;76.30;;;;;;5037500;28;20035;-55
2022/12/13 10:46:02;;;;;;;8.55;5.90;;;5.20;76.10;;;;;;5024627;28;20033;-53
2022/12/13 10:48:45;;;;;;;8.40;6.28;;;5.20;75.90;;;;;;5036848;28;20045;-56
2022/12/13 10:51:14;;;;;;;8.25;6.22;;;5.20;75.80;;;;;;5032480;28;20119;-55
2022/12/13 10:53:49;;;;;;;9.77;6.50;;;5.20;75.80;;;;;;5039969;28;20550;-53
2022/12/13 10:56:19;;;;;;;9.75;7.28;;;5.20;76.10;;;;;;5035237;28;20043;-53
2022/12/13 10:58:46;;;;;;;9.68;6.78;;;5.10;76.30;;;;;;5030874;28;20033;-52
2022/12/13 11:01:17;;;;;;;11.65;8.18;;;5.00;76.30;;;;;;5034109;28;20041;-56
2022/12/13 11:03:55;;;;;;;11.13;7.75;;;4.90;76.60;;;;;;5033040;28;20159;-56
2022/12/13 11:06:20;;;;;;;14.40;9.50;;;4.90;76.70;;;;;;5026503;28;20044;-55
2022/12/13 11:08:46;;;;;;;16.17;10.73;;;4.80;76.90;;;;;;5039213;28;20032;-55
2022/12/13 11:11:15;;;;;;;14.70;10.38;;;4.70;77.20;;;;;;5042620;28;20052;-54
2022/12/13 11:13:45;;;;;;;14.48;10.55;;;4.70;77.60;;;;;;5045985;28;20040;-53
2022/12/13 11:16:30;;;;;;;14.18;9.10;;;4.60;77.60;;;;;;5041047;28;20185;-52
2022/12/13 11:19:18;;;;;;;14.13;9.95;;;4.60;77.90;;;;;;5032476;28;20082;-55
2022/12/13 11:21:47;;;;;;;14.80;9.90;;;4.50;78.20;;;;;;5038878;28;20144;-55
2022/12/13 11:24:41;;;;;;;11.65;8.55;;;4.50;78.40;;;;;;5040936;28;20032;-52
2022/12/13 11:27:31;;;;;;;15.32;9.68;;;4.50;78.30;;;;;;5035863;28;20207;-51
2022/12/13 11:30:15;;;;;;;11.18;9.25;;;4.50;78.50;;;;;;5041282;28;20316;-52
2022/12/13 11:32:49;;;;;;;16.95;11.40;;;4.50;78.70;;;;;;5037704;28;20033;-52
2022/12/13 11:35:27;;;;;;;15.18;10.95;;;4.40;78.70;;;;;;5028345;28;20056;-53
2022/12/13 11:38:14;;;;;;;15.60;11.50;;;4.40;78.70;;;;;;5031754;28;20113;-55
2022/12/13 11:40:45;;;;;;;16.55;11.65;;;4.30;78.90;;;;;;5043539;28;20052;-52
2022/12/13 11:43:32;;;;;;;16.17;10.88;;;4.20;79.20;;;;;;5043487;28;20645;-54
2022/12/13 11:46:00;;;;;;;15.55;11.45;;;4.20;79.40;;;;;;5037997;28;20036;-53
2022/12/13 11:48:49;;;;;;;16.48;11.32;;;4.10;79.80;;;;;;5037730;28;20108;-53
2022/12/13 11:51:24;;;;;;;15.15;10.73;;;4.10;79.80;;;;;;5037431;28;20064;-54
2022/12/13 11:54:01;;;;;;;13.07;10.25;;;4.10;79.90;;;;;;5040682;28;20036;-53
2022/12/13 11:56:35;;;;;;;14.15;10.25;;;4.10;80.10;;;;;;5036855;28;20029;-54
2022/12/13 11:59:26;;;;;;;13.38;10.23;;;4.10;80.30;;;;;;5029865;28;20077;-54
2022/12/13 12:02:06;;;;;;;13.80;10.30;;;4.00;80.20;;;;;;5032493;28;20365;-56
2022/12/13 12:05:00;;;;;;;15.15;10.85;;;4.00;80.30;;;;;;5035108;28;20025;-55
2022/12/13 12:07:37;;;;;;;14.95;11.50;;;4.00;80.30;;;;;;5042973;28;20073;-55
2022/12/13 12:10:12;;;;;;;16.65;11.45;;;4.00;80.60;;;;;;5032820;28;20067;-57
2022/12/13 12:12:41;;;;;;;15.35;10.45;;;3.90;80.80;;;;;;5036500;28;20024;-55
2022/12/13 12:15:28;;;;;;;13.82;10.05;;;3.90;81.00;;;;;;5035973;28;20141;-55
2022/12/13 12:17:56;;;;;;;13.57;9.90;;;4.00;81.10;;;;;;5032624;28;21358;-56
2022/12/13 12:21:02;;;;;;;12.30;9.32;;;3.90;81.10;;;;;;5039752;28;20036;-52
2022/12/13 12:24:02;;;;;;;12.38;9.05;;;3.90;81.00;;;;;;5029822;28;20063;-56
2022/12/13 12:26:54;;;;;;;11.18;8.73;;;3.90;81.00;;;;;;5022043;28;20040;-58
2022/12/13 12:29:34;;;;;;;11.40;8.48;;;3.90;81.30;;;;;;5041260;28;20037;-56
2022/12/13 12:32:07;;;;;;;11.88;8.55;;;3.80;81.40;;;;;;5039574;28;20206;-58
2022/12/13 12:34:54;;;;;;;11.27;8.95;;;3.80;81.50;;;;;;5029337;28;20048;-57
2022/12/13 12:37:48;;;;;;;10.80;8.30;;;3.80;81.60;;;;;;5039520;28;20028;-58
2022/12/13 12:40:34;;;;;;;10.73;8.15;;;3.80;81.60;;;;;;5034899;28;20071;-57
2022/12/13 12:43:27;;;;;;;12.70;8.52;;;3.80;81.80;;;;;;5026248;28;20950;-57
2022/12/13 12:45:56;;;;;;;11.73;9.00;;;3.80;82.50;;;;;;5043269;28;20495;-51
2022/12/13 12:48:40;;;;;;;13.80;9.98;;;3.80;82.00;;;;;;5042199;28;20052;-58
2022/12/13 12:51:12;;;;;;;14.90;11.25;;;3.80;82.20;;;;;;5031285;28;20040;-55
2022/12/13 12:53:53;;;;;;;14.50;11.02;;;3.80;82.20;;;;;;5032299;28;20209;-58
2022/12/13 12:56:36;;;;;;;16.20;11.85;;;3.80;82.00;;;;;;5041289;28;20029;-57
2022/12/13 12:59:32;;;;;;;14.57;11.20;;;3.80;82.20;;;;;;5037159;28;20037;-58
2022/12/13 13:02:06;;;;;;;14.63;10.57;;;3.80;82.10;;;;;;5036890;28;20036;-56
2022/12/13 13:04:41;;;;;;;14.45;11.13;;;3.80;82.20;;;;;;5037225;28;20454;-55
2022/12/13 13:07:22;;;;;;;14.43;11.00;;;3.70;82.20;;;;;;5043282;28;20061;-56
2022/12/13 13:09:50;;;;;;;16.63;12.40;;;3.70;82.40;;;;;;5044415;28;20404;-58
2022/12/13 13:12:17;;;;;;;12.45;10.50;;;3.70;82.50;;;;;;5040341;28;20036;-57
2022/12/13 13:14:43;;;;;;;14.40;10.95;;;3.70;82.60;;;;;;5041255;28;20071;-58
2022/12/13 13:17:24;;;;;;;15.02;10.48;;;3.70;82.60;;;;;;5039022;28;20034;-58
2022/12/13 13:20:17;;;;;;;13.40;9.97;;;3.70;82.50;;;;;;5037108;28;20126;-55
2022/12/13 13:22:43;;;;;;;13.63;9.75;;;3.60;82.50;;;;;;5039507;28;20047;-55
2022/12/13 13:25:09;;;;;;;12.90;10.15;;;3.70;82.80;;;;;;5037415;28;20106;-57
2022/12/13 13:27:44;;;;;;;12.50;9.48;;;3.60;82.70;;;;;;5033588;28;20036;-55